sensor_id;sensor_type;location;lat;lon;timestamp;P1;durP1;ratioP1;P2;durP2;ratioP2
51636;SDS011;37713;53.254;6.460;2022-11-15T00:01:41;34.50;;;21.67;;
51636;SDS011;37713;53.254;6.460;2022-11-15T00:04:07;33.30;;;20.90;;
51636;SDS011;37713;53.254;6.460;2022-11-15T00:06:33;33.08;;;20.85;;
51636;SDS011;37713;53.254;6.460;2022-11-15T00:08:59;31.60;;;21.42;;
51636;SDS011;37713;53.254;6.460;2022-11-15T00:11:25;34.08;;;21.33;;
51636;SDS011;37713;53.254;6.460;2022-11-15T00:13:51;37.55;;;21.55;;
51636;SDS011;37713;53.254;6.460;2022-11-15T00:16:20;34.63;;;20.77;;
51636;SDS011;37713;53.254;6.460;2022-11-15T00:18:46;36.33;;;21.38;;
51636;SDS011;37713;53.254;6.460;2022-11-15T00:21:12;33.17;;;20.85;;
51636;SDS011;37713;53.254;6.460;2022-11-15T00:23:38;34.40;;;20.48;;
51636;SDS011;37713;53.254;6.460;2022-11-15T00:26:04;33.17;;;21.10;;
51636;SDS011;37713;53.254;6.460;2022-11-15T00:28:30;32.20;;;20.70;;
51636;SDS011;37713;53.254;6.460;2022-11-15T00:31:00;33.75;;;20.20;;
51636;SDS011;37713;53.254;6.460;2022-11-15T00:33:29;31.02;;;19.80;;
51636;SDS011;37713;53.254;6.460;2022-11-15T00:35:59;33.30;;;20.10;;
51636;SDS011;37713;53.254;6.460;2022-11-15T00:38:35;33.33;;;20.27;;
51636;SDS011;37713;53.254;6.460;2022-11-15T00:41:03;33.20;;;20.20;;
51636;SDS011;37713;53.254;6.460;2022-11-15T00:43:31;35.13;;;21.27;;
51636;SDS011;37713;53.254;6.460;2022-11-15T00:45:57;34.97;;;21.40;;
51636;SDS011;37713;53.254;6.460;2022-11-15T00:48:23;34.78;;;21.30;;
51636;SDS011;37713;53.254;6.460;2022-11-15T00:50:49;35.53;;;20.83;;
51636;SDS011;37713;53.254;6.460;2022-11-15T00:53:15;34.13;;;19.90;;
51636;SDS011;37713;53.254;6.460;2022-11-15T00:55:41;33.17;;;20.38;;
51636;SDS011;37713;53.254;6.460;2022-11-15T00:58:07;33.08;;;19.92;;
51636;SDS011;37713;53.254;6.460;2022-11-15T01:00:33;33.45;;;19.65;;
51636;SDS011;37713;53.254;6.460;2022-11-15T01:02:59;34.25;;;20.15;;
51636;SDS011;37713;53.254;6.460;2022-11-15T01:05:25;31.38;;;19.00;;
51636;SDS011;37713;53.254;6.460;2022-11-15T01:07:52;33.95;;;19.77;;
51636;SDS011;37713;53.254;6.460;2022-11-15T01:10:19;31.63;;;19.33;;
51636;SDS011;37713;53.254;6.460;2022-11-15T01:12:44;33.30;;;19.13;;
51636;SDS011;37713;53.254;6.460;2022-11-15T01:15:10;32.85;;;18.63;;
51636;SDS011;37713;53.254;6.460;2022-11-15T01:17:36;29.73;;;18.48;;
51636;SDS011;37713;53.254;6.460;2022-11-15T01:20:02;30.38;;;18.58;;
51636;SDS011;37713;53.254;6.460;2022-11-15T01:22:28;34.35;;;19.42;;
51636;SDS011;37713;53.254;6.460;2022-11-15T01:24:54;29.38;;;19.05;;
51636;SDS011;37713;53.254;6.460;2022-11-15T01:27:19;30.40;;;19.42;;
51636;SDS011;37713;53.254;6.460;2022-11-15T01:29:45;31.77;;;18.52;;
51636;SDS011;37713;53.254;6.460;2022-11-15T01:32:11;32.08;;;19.58;;
51636;SDS011;37713;53.254;6.460;2022-11-15T01:34:37;32.03;;;19.98;;
51636;SDS011;37713;53.254;6.460;2022-11-15T01:37:02;32.53;;;20.15;;
51636;SDS011;37713;53.254;6.460;2022-11-15T01:39:28;34.30;;;21.23;;
51636;SDS011;37713;53.254;6.460;2022-11-15T01:41:54;35.38;;;21.10;;
51636;SDS011;37713;53.254;6.460;2022-11-15T01:52:26;35.17;;;20.63;;
51636;SDS011;37713;53.254;6.460;2022-11-15T01:54:56;32.80;;;20.92;;
51636;SDS011;37713;53.254;6.460;2022-11-15T01:57:28;34.50;;;20.77;;
51636;SDS011;37713;53.254;6.460;2022-11-15T01:59:54;36.45;;;22.63;;
51636;SDS011;37713;53.254;6.460;2022-11-15T02:02:21;38.75;;;22.35;;
51636;SDS011;37713;53.254;6.460;2022-11-15T02:04:47;38.47;;;21.25;;
51636;SDS011;37713;53.254;6.460;2022-11-15T02:07:16;33.83;;;21.70;;
51636;SDS011;37713;53.254;6.460;2022-11-15T02:09:44;35.47;;;22.05;;
51636;SDS011;37713;53.254;6.460;2022-11-15T02:12:10;36.20;;;21.55;;
51636;SDS011;37713;53.254;6.460;2022-11-15T02:14:40;36.75;;;22.85;;
51636;SDS011;37713;53.254;6.460;2022-11-15T02:17:29;36.97;;;22.00;;
51636;SDS011;37713;53.254;6.460;2022-11-15T02:32:00;32.85;;;19.40;;
51636;SDS011;37713;53.254;6.460;2022-11-15T02:38:03;30.00;;;17.95;;
51636;SDS011;37713;53.254;6.460;2022-11-15T02:43:19;31.05;;;18.65;;
51636;SDS011;37713;53.254;6.460;2022-11-15T02:46:21;30.98;;;17.92;;
51636;SDS011;37713;53.254;6.460;2022-11-15T02:49:14;33.20;;;18.65;;
51636;SDS011;37713;53.254;6.460;2022-11-15T02:51:42;33.45;;;18.33;;
51636;SDS011;37713;53.254;6.460;2022-11-15T02:54:14;29.85;;;17.58;;
51636;SDS011;37713;53.254;6.460;2022-11-15T02:56:44;33.63;;;18.40;;
51636;SDS011;37713;53.254;6.460;2022-11-15T03:12:28;34.28;;;18.35;;
51636;SDS011;37713;53.254;6.460;2022-11-15T03:17:47;36.80;;;19.83;;
51636;SDS011;37713;53.254;6.460;2022-11-15T03:20:18;40.53;;;18.90;;
51636;SDS011;37713;53.254;6.460;2022-11-15T03:22:45;35.88;;;19.38;;
51636;SDS011;37713;53.254;6.460;2022-11-15T03:25:13;35.97;;;19.98;;
51636;SDS011;37713;53.254;6.460;2022-11-15T03:27:46;39.92;;;20.27;;
51636;SDS011;37713;53.254;6.460;2022-11-15T03:30:16;37.72;;;19.90;;
51636;SDS011;37713;53.254;6.460;2022-11-15T03:32:48;40.05;;;19.90;;
51636;SDS011;37713;53.254;6.460;2022-11-15T03:35:26;38.60;;;19.60;;
51636;SDS011;37713;53.254;6.460;2022-11-15T03:40:40;39.85;;;19.08;;
51636;SDS011;37713;53.254;6.460;2022-11-15T03:45:55;37.53;;;19.50;;
51636;SDS011;37713;53.254;6.460;2022-11-15T03:48:27;35.65;;;19.10;;
51636;SDS011;37713;53.254;6.460;2022-11-15T03:50:58;36.15;;;19.33;;
51636;SDS011;37713;53.254;6.460;2022-11-15T03:53:24;39.75;;;20.20;;
51636;SDS011;37713;53.254;6.460;2022-11-15T03:55:50;42.05;;;20.60;;
51636;SDS011;37713;53.254;6.460;2022-11-15T03:58:16;36.53;;;19.20;;
51636;SDS011;37713;53.254;6.460;2022-11-15T04:00:42;39.03;;;19.15;;
51636;SDS011;37713;53.254;6.460;2022-11-15T04:03:07;39.45;;;20.25;;
51636;SDS011;37713;53.254;6.460;2022-11-15T04:05:33;39.67;;;19.77;;
51636;SDS011;37713;53.254;6.460;2022-11-15T04:07:59;37.50;;;19.50;;
51636;SDS011;37713;53.254;6.460;2022-11-15T04:10:25;39.38;;;19.40;;
51636;SDS011;37713;53.254;6.460;2022-11-15T04:12:50;39.53;;;19.52;;
51636;SDS011;37713;53.254;6.460;2022-11-15T04:15:17;44.42;;;19.38;;
51636;SDS011;37713;53.254;6.460;2022-11-15T04:17:51;46.80;;;20.40;;
51636;SDS011;37713;53.254;6.460;2022-11-15T04:20:23;38.53;;;19.42;;
51636;SDS011;37713;53.254;6.460;2022-11-15T04:23:23;41.50;;;19.83;;
51636;SDS011;37713;53.254;6.460;2022-11-15T04:26:11;41.17;;;19.70;;
51636;SDS011;37713;53.254;6.460;2022-11-15T04:28:40;40.75;;;20.23;;
51636;SDS011;37713;53.254;6.460;2022-11-15T04:31:24;43.67;;;19.88;;
51636;SDS011;37713;53.254;6.460;2022-11-15T04:33:50;41.15;;;19.77;;
51636;SDS011;37713;53.254;6.460;2022-11-15T04:36:16;40.83;;;19.88;;
51636;SDS011;37713;53.254;6.460;2022-11-15T04:39:01;41.65;;;18.67;;
51636;SDS011;37713;53.254;6.460;2022-11-15T04:41:26;41.28;;;19.08;;
51636;SDS011;37713;53.254;6.460;2022-11-15T04:43:54;41.50;;;19.58;;
51636;SDS011;37713;53.254;6.460;2022-11-15T04:46:20;40.25;;;19.65;;
51636;SDS011;37713;53.254;6.460;2022-11-15T04:48:46;38.13;;;19.83;;
51636;SDS011;37713;53.254;6.460;2022-11-15T04:51:11;42.05;;;20.20;;
51636;SDS011;37713;53.254;6.460;2022-11-15T04:53:37;36.42;;;20.08;;
51636;SDS011;37713;53.254;6.460;2022-11-15T04:56:03;43.35;;;20.27;;
51636;SDS011;37713;53.254;6.460;2022-11-15T04:58:29;39.30;;;19.30;;
51636;SDS011;37713;53.254;6.460;2022-11-15T05:00:55;42.67;;;20.02;;
51636;SDS011;37713;53.254;6.460;2022-11-15T05:03:20;39.40;;;20.42;;
51636;SDS011;37713;53.254;6.460;2022-11-15T05:06:05;45.97;;;20.80;;
51636;SDS011;37713;53.254;6.460;2022-11-15T05:08:31;46.65;;;20.80;;
51636;SDS011;37713;53.254;6.460;2022-11-15T05:10:57;41.67;;;21.30;;
51636;SDS011;37713;53.254;6.460;2022-11-15T05:13:23;45.85;;;20.80;;
51636;SDS011;37713;53.254;6.460;2022-11-15T05:15:49;40.55;;;20.20;;
51636;SDS011;37713;53.254;6.460;2022-11-15T05:18:14;44.92;;;22.13;;
51636;SDS011;37713;53.254;6.460;2022-11-15T05:20:40;46.83;;;21.75;;
51636;SDS011;37713;53.254;6.460;2022-11-15T05:23:06;50.53;;;22.77;;
51636;SDS011;37713;53.254;6.460;2022-11-15T05:25:32;51.63;;;24.48;;
51636;SDS011;37713;53.254;6.460;2022-11-15T05:27:57;54.97;;;22.60;;
51636;SDS011;37713;53.254;6.460;2022-11-15T05:30:23;52.92;;;23.23;;
51636;SDS011;37713;53.254;6.460;2022-11-15T05:32:49;46.03;;;21.58;;
51636;SDS011;37713;53.254;6.460;2022-11-15T05:35:18;50.05;;;24.25;;
51636;SDS011;37713;53.254;6.460;2022-11-15T05:37:51;54.45;;;23.75;;
51636;SDS011;37713;53.254;6.460;2022-11-15T05:40:16;57.42;;;25.20;;
51636;SDS011;37713;53.254;6.460;2022-11-15T05:42:42;57.28;;;25.63;;
51636;SDS011;37713;53.254;6.460;2022-11-15T05:45:09;56.13;;;24.85;;
51636;SDS011;37713;53.254;6.460;2022-11-15T05:47:34;53.67;;;24.02;;
51636;SDS011;37713;53.254;6.460;2022-11-15T05:50:02;57.50;;;25.33;;
51636;SDS011;37713;53.254;6.460;2022-11-15T05:52:29;57.47;;;25.00;;
51636;SDS011;37713;53.254;6.460;2022-11-15T05:54:59;59.05;;;25.75;;
51636;SDS011;37713;53.254;6.460;2022-11-15T05:57:26;60.95;;;25.05;;
51636;SDS011;37713;53.254;6.460;2022-11-15T05:59:52;59.20;;;25.00;;
51636;SDS011;37713;53.254;6.460;2022-11-15T06:02:19;68.35;;;25.90;;
51636;SDS011;37713;53.254;6.460;2022-11-15T06:04:45;68.07;;;25.00;;
51636;SDS011;37713;53.254;6.460;2022-11-15T06:07:10;56.80;;;25.13;;
51636;SDS011;37713;53.254;6.460;2022-11-15T06:09:36;60.50;;;25.75;;
51636;SDS011;37713;53.254;6.460;2022-11-15T06:12:02;65.88;;;25.63;;
51636;SDS011;37713;53.254;6.460;2022-11-15T06:14:27;57.53;;;26.23;;
51636;SDS011;37713;53.254;6.460;2022-11-15T06:16:53;67.40;;;27.27;;
51636;SDS011;37713;53.254;6.460;2022-11-15T06:19:19;62.75;;;27.65;;
51636;SDS011;37713;53.254;6.460;2022-11-15T06:21:45;68.03;;;26.13;;
51636;SDS011;37713;53.254;6.460;2022-11-15T06:24:10;60.33;;;25.65;;
51636;SDS011;37713;53.254;6.460;2022-11-15T06:26:36;64.53;;;26.17;;
51636;SDS011;37713;53.254;6.460;2022-11-15T06:29:03;61.00;;;26.02;;
51636;SDS011;37713;53.254;6.460;2022-11-15T06:31:29;65.97;;;26.75;;
51636;SDS011;37713;53.254;6.460;2022-11-15T06:33:55;70.13;;;25.92;;
51636;SDS011;37713;53.254;6.460;2022-11-15T06:36:21;62.90;;;27.15;;
51636;SDS011;37713;53.254;6.460;2022-11-15T06:38:47;65.30;;;28.20;;
51636;SDS011;37713;53.254;6.460;2022-11-15T06:41:13;65.93;;;27.25;;
51636;SDS011;37713;53.254;6.460;2022-11-15T06:43:39;60.35;;;27.27;;
51636;SDS011;37713;53.254;6.460;2022-11-15T06:46:05;63.88;;;26.35;;
51636;SDS011;37713;53.254;6.460;2022-11-15T06:48:32;64.75;;;27.35;;
51636;SDS011;37713;53.254;6.460;2022-11-15T06:50:59;68.50;;;28.73;;
51636;SDS011;37713;53.254;6.460;2022-11-15T06:53:27;65.63;;;28.13;;
51636;SDS011;37713;53.254;6.460;2022-11-15T06:55:53;65.20;;;28.55;;
51636;SDS011;37713;53.254;6.460;2022-11-15T07:00:49;56.75;;;26.17;;
51636;SDS011;37713;53.254;6.460;2022-11-15T07:03:14;62.75;;;26.60;;
51636;SDS011;37713;53.254;6.460;2022-11-15T07:05:40;57.20;;;26.73;;
51636;SDS011;37713;53.254;6.460;2022-11-15T07:08:06;63.67;;;27.40;;
51636;SDS011;37713;53.254;6.460;2022-11-15T07:10:31;58.85;;;26.55;;
51636;SDS011;37713;53.254;6.460;2022-11-15T07:12:57;60.80;;;27.10;;
51636;SDS011;37713;53.254;6.460;2022-11-15T07:15:24;61.97;;;26.35;;
51636;SDS011;37713;53.254;6.460;2022-11-15T07:17:50;64.43;;;27.10;;
51636;SDS011;37713;53.254;6.460;2022-11-15T07:20:17;65.35;;;27.65;;
51636;SDS011;37713;53.254;6.460;2022-11-15T07:22:43;60.13;;;26.13;;
51636;SDS011;37713;53.254;6.460;2022-11-15T07:25:12;62.05;;;27.38;;
51636;SDS011;37713;53.254;6.460;2022-11-15T07:27:37;59.78;;;26.10;;
51636;SDS011;37713;53.254;6.460;2022-11-15T07:30:03;56.30;;;27.25;;
51636;SDS011;37713;53.254;6.460;2022-11-15T07:32:30;71.18;;;28.17;;
51636;SDS011;37713;53.254;6.460;2022-11-15T07:34:56;57.58;;;27.45;;
51636;SDS011;37713;53.254;6.460;2022-11-15T07:37:21;59.08;;;26.92;;
51636;SDS011;37713;53.254;6.460;2022-11-15T07:39:47;58.85;;;27.73;;
51636;SDS011;37713;53.254;6.460;2022-11-15T07:42:13;64.53;;;28.40;;
51636;SDS011;37713;53.254;6.460;2022-11-15T07:44:58;61.38;;;27.05;;
51636;SDS011;37713;53.254;6.460;2022-11-15T07:47:23;65.70;;;27.23;;
51636;SDS011;37713;53.254;6.460;2022-11-15T07:49:49;58.47;;;27.00;;
51636;SDS011;37713;53.254;6.460;2022-11-15T07:52:15;58.53;;;26.08;;
51636;SDS011;37713;53.254;6.460;2022-11-15T07:54:41;60.17;;;27.45;;
51636;SDS011;37713;53.254;6.460;2022-11-15T07:57:07;59.20;;;27.42;;
51636;SDS011;37713;53.254;6.460;2022-11-15T07:59:34;62.67;;;27.63;;
51636;SDS011;37713;53.254;6.460;2022-11-15T08:02:00;57.67;;;27.33;;
51636;SDS011;37713;53.254;6.460;2022-11-15T08:04:29;60.80;;;27.20;;
51636;SDS011;37713;53.254;6.460;2022-11-15T08:06:54;55.22;;;26.00;;
51636;SDS011;37713;53.254;6.460;2022-11-15T08:09:20;56.45;;;27.02;;
51636;SDS011;37713;53.254;6.460;2022-11-15T08:11:46;58.67;;;27.38;;
51636;SDS011;37713;53.254;6.460;2022-11-15T08:14:11;58.63;;;26.65;;
51636;SDS011;37713;53.254;6.460;2022-11-15T08:16:37;49.72;;;24.80;;
51636;SDS011;37713;53.254;6.460;2022-11-15T08:19:03;53.97;;;26.77;;
51636;SDS011;37713;53.254;6.460;2022-11-15T08:21:29;52.63;;;25.17;;
51636;SDS011;37713;53.254;6.460;2022-11-15T08:23:55;53.35;;;25.67;;
51636;SDS011;37713;53.254;6.460;2022-11-15T08:26:20;43.40;;;24.40;;
51636;SDS011;37713;53.254;6.460;2022-11-15T08:28:46;48.40;;;24.67;;
51636;SDS011;37713;53.254;6.460;2022-11-15T08:31:16;50.58;;;24.90;;
51636;SDS011;37713;53.254;6.460;2022-11-15T08:33:43;49.65;;;24.63;;
51636;SDS011;37713;53.254;6.460;2022-11-15T08:36:15;48.72;;;24.40;;
51636;SDS011;37713;53.254;6.460;2022-11-15T08:38:42;46.58;;;25.17;;
51636;SDS011;37713;53.254;6.460;2022-11-15T08:41:12;44.35;;;25.52;;
51636;SDS011;37713;53.254;6.460;2022-11-15T08:43:44;45.90;;;23.40;;
51636;SDS011;37713;53.254;6.460;2022-11-15T08:46:11;47.60;;;24.88;;
51636;SDS011;37713;53.254;6.460;2022-11-15T08:48:38;40.03;;;23.85;;
51636;SDS011;37713;53.254;6.460;2022-11-15T08:51:04;47.28;;;24.60;;
51636;SDS011;37713;53.254;6.460;2022-11-15T08:53:31;44.08;;;24.35;;
51636;SDS011;37713;53.254;6.460;2022-11-15T08:55:56;45.83;;;24.40;;
51636;SDS011;37713;53.254;6.460;2022-11-15T08:58:22;39.40;;;22.95;;
51636;SDS011;37713;53.254;6.460;2022-11-15T09:00:48;43.05;;;24.05;;
51636;SDS011;37713;53.254;6.460;2022-11-15T09:03:14;46.22;;;23.55;;
51636;SDS011;37713;53.254;6.460;2022-11-15T09:05:40;41.00;;;23.60;;
51636;SDS011;37713;53.254;6.460;2022-11-15T09:08:06;42.45;;;23.42;;
51636;SDS011;37713;53.254;6.460;2022-11-15T09:10:32;46.30;;;24.05;;
51636;SDS011;37713;53.254;6.460;2022-11-15T09:12:57;39.95;;;22.98;;
51636;SDS011;37713;53.254;6.460;2022-11-15T09:15:23;39.15;;;22.23;;
51636;SDS011;37713;53.254;6.460;2022-11-15T09:17:49;39.03;;;22.45;;
51636;SDS011;37713;53.254;6.460;2022-11-15T09:20:15;35.10;;;21.90;;
51636;SDS011;37713;53.254;6.460;2022-11-15T09:22:40;36.42;;;21.38;;
51636;SDS011;37713;53.254;6.460;2022-11-15T09:25:06;35.53;;;21.58;;
51636;SDS011;37713;53.254;6.460;2022-11-15T09:27:33;42.83;;;21.83;;
51636;SDS011;37713;53.254;6.460;2022-11-15T09:29:58;37.53;;;21.50;;
51636;SDS011;37713;53.254;6.460;2022-11-15T09:32:27;36.38;;;20.98;;
51636;SDS011;37713;53.254;6.460;2022-11-15T09:34:55;34.08;;;20.08;;
51636;SDS011;37713;53.254;6.460;2022-11-15T09:37:20;33.70;;;21.42;;
51636;SDS011;37713;53.254;6.460;2022-11-15T09:39:46;34.90;;;20.33;;
51636;SDS011;37713;53.254;6.460;2022-11-15T09:48:06;34.33;;;19.25;;
51636;SDS011;37713;53.254;6.460;2022-11-15T09:50:46;31.23;;;18.65;;
51636;SDS011;37713;53.254;6.460;2022-11-15T09:53:19;30.83;;;18.02;;
51636;SDS011;37713;53.254;6.460;2022-11-15T09:55:54;30.25;;;18.75;;
51636;SDS011;37713;53.254;6.460;2022-11-15T10:01:39;31.25;;;18.30;;
51636;SDS011;37713;53.254;6.460;2022-11-15T10:04:20;28.27;;;17.52;;
51636;SDS011;37713;53.254;6.460;2022-11-15T10:06:53;31.25;;;17.77;;
51636;SDS011;37713;53.254;6.460;2022-11-15T10:09:53;33.85;;;18.15;;
51636;SDS011;37713;53.254;6.460;2022-11-15T10:12:29;30.38;;;16.90;;
51636;SDS011;37713;53.254;6.460;2022-11-15T10:15:08;30.58;;;17.65;;
51636;SDS011;37713;53.254;6.460;2022-11-15T10:20:26;28.45;;;17.20;;
51636;SDS011;37713;53.254;6.460;2022-11-15T10:23:01;28.75;;;16.10;;
51636;SDS011;37713;53.254;6.460;2022-11-15T10:25:34;24.05;;;15.95;;
51636;SDS011;37713;53.254;6.460;2022-11-15T10:30:44;25.50;;;15.88;;
51636;SDS011;37713;53.254;6.460;2022-11-15T10:41:20;26.77;;;16.10;;
51636;SDS011;37713;53.254;6.460;2022-11-15T10:46:32;29.00;;;15.50;;
51636;SDS011;37713;53.254;6.460;2022-11-15T10:49:16;27.33;;;15.80;;
51636;SDS011;37713;53.254;6.460;2022-11-15T10:51:48;27.23;;;16.27;;
51636;SDS011;37713;53.254;6.460;2022-11-15T10:54:33;26.33;;;16.27;;
51636;SDS011;37713;53.254;6.460;2022-11-15T10:57:36;30.40;;;16.30;;
51636;SDS011;37713;53.254;6.460;2022-11-15T11:05:00;24.95;;;15.23;;
51636;SDS011;37713;53.254;6.460;2022-11-15T11:07:29;28.63;;;15.68;;
51636;SDS011;37713;53.254;6.460;2022-11-15T11:12:29;23.38;;;14.63;;
51636;SDS011;37713;53.254;6.460;2022-11-15T11:14:57;22.98;;;14.25;;
51636;SDS011;37713;53.254;6.460;2022-11-15T11:17:43;23.27;;;14.30;;
51636;SDS011;37713;53.254;6.460;2022-11-15T11:20:41;21.80;;;14.15;;
51636;SDS011;37713;53.254;6.460;2022-11-15T11:28:57;20.05;;;13.20;;
51636;SDS011;37713;53.254;6.460;2022-11-15T11:37:07;22.52;;;12.35;;
51636;SDS011;37713;53.254;6.460;2022-11-15T11:48:29;16.88;;;11.57;;
51636;SDS011;37713;53.254;6.460;2022-11-15T11:51:42;21.95;;;10.88;;
51636;SDS011;37713;53.254;6.460;2022-11-15T11:54:14;17.70;;;10.75;;
51636;SDS011;37713;53.254;6.460;2022-11-15T11:56:48;15.95;;;10.35;;
51636;SDS011;37713;53.254;6.460;2022-11-15T12:02:13;12.95;;;8.48;;
51636;SDS011;37713;53.254;6.460;2022-11-15T12:04:48;13.50;;;7.22;;
51636;SDS011;37713;53.254;6.460;2022-11-15T12:07:25;14.30;;;7.40;;
51636;SDS011;37713;53.254;6.460;2022-11-15T12:10:04;11.35;;;6.32;;
51636;SDS011;37713;53.254;6.460;2022-11-15T12:15:59;10.50;;;5.25;;
51636;SDS011;37713;53.254;6.460;2022-11-15T12:18:39;12.23;;;5.10;;
51636;SDS011;37713;53.254;6.460;2022-11-15T12:24:02;10.77;;;4.00;;
51636;SDS011;37713;53.254;6.460;2022-11-15T12:26:47;11.02;;;4.13;;
51636;SDS011;37713;53.254;6.460;2022-11-15T12:29:40;9.88;;;4.72;;
51636;SDS011;37713;53.254;6.460;2022-11-15T12:32:24;11.48;;;4.50;;
51636;SDS011;37713;53.254;6.460;2022-11-15T12:34:58;14.73;;;5.43;;
51636;SDS011;37713;53.254;6.460;2022-11-15T12:37:32;11.05;;;4.60;;
51636;SDS011;37713;53.254;6.460;2022-11-15T12:42:41;9.30;;;3.75;;
51636;SDS011;37713;53.254;6.460;2022-11-15T12:45:25;8.23;;;2.53;;
51636;SDS011;37713;53.254;6.460;2022-11-15T12:58:50;10.63;;;4.10;;
51636;SDS011;37713;53.254;6.460;2022-11-15T13:06:47;6.53;;;2.30;;
51636;SDS011;37713;53.254;6.460;2022-11-15T13:15:00;8.25;;;2.90;;
51636;SDS011;37713;53.254;6.460;2022-11-15T13:17:49;6.63;;;2.50;;
51636;SDS011;37713;53.254;6.460;2022-11-15T13:20:26;6.75;;;2.40;;
51636;SDS011;37713;53.254;6.460;2022-11-15T13:23:10;6.55;;;2.80;;
51636;SDS011;37713;53.254;6.460;2022-11-15T13:28:31;6.43;;;2.88;;
51636;SDS011;37713;53.254;6.460;2022-11-15T13:31:14;7.60;;;2.70;;
51636;SDS011;37713;53.254;6.460;2022-11-15T13:33:49;7.55;;;3.03;;
51636;SDS011;37713;53.254;6.460;2022-11-15T13:36:20;7.75;;;3.13;;
51636;SDS011;37713;53.254;6.460;2022-11-15T13:38:55;8.45;;;3.47;;
51636;SDS011;37713;53.254;6.460;2022-11-15T13:41:45;8.95;;;3.90;;
51636;SDS011;37713;53.254;6.460;2022-11-15T13:44:27;9.57;;;3.67;;
51636;SDS011;37713;53.254;6.460;2022-11-15T13:49:41;8.55;;;4.50;;
51636;SDS011;37713;53.254;6.460;2022-11-15T13:52:07;11.00;;;5.47;;
51636;SDS011;37713;53.254;6.460;2022-11-15T13:54:40;10.02;;;5.28;;
51636;SDS011;37713;53.254;6.460;2022-11-15T13:57:26;10.57;;;5.05;;
51636;SDS011;37713;53.254;6.460;2022-11-15T14:00:06;8.55;;;4.40;;
51636;SDS011;37713;53.254;6.460;2022-11-15T14:02:49;10.73;;;4.70;;
51636;SDS011;37713;53.254;6.460;2022-11-15T14:07:59;10.57;;;4.40;;
51636;SDS011;37713;53.254;6.460;2022-11-15T14:10:37;8.75;;;4.22;;
51636;SDS011;37713;53.254;6.460;2022-11-15T14:13:04;8.95;;;4.45;;
51636;SDS011;37713;53.254;6.460;2022-11-15T14:15:51;9.73;;;5.03;;
51636;SDS011;37713;53.254;6.460;2022-11-15T14:21:12;11.00;;;4.20;;
51636;SDS011;37713;53.254;6.460;2022-11-15T14:23:39;8.63;;;3.58;;
51636;SDS011;37713;53.254;6.460;2022-11-15T14:26:05;8.27;;;3.67;;
51636;SDS011;37713;53.254;6.460;2022-11-15T14:28:36;9.60;;;4.30;;
51636;SDS011;37713;53.254;6.460;2022-11-15T14:31:07;9.25;;;4.00;;
51636;SDS011;37713;53.254;6.460;2022-11-15T14:33:37;8.70;;;3.78;;
51636;SDS011;37713;53.254;6.460;2022-11-15T14:36:05;7.43;;;3.17;;
51636;SDS011;37713;53.254;6.460;2022-11-15T14:38:36;7.80;;;3.30;;
51636;SDS011;37713;53.254;6.460;2022-11-15T14:41:02;8.75;;;3.70;;
51636;SDS011;37713;53.254;6.460;2022-11-15T14:43:27;10.70;;;3.20;;
51636;SDS011;37713;53.254;6.460;2022-11-15T14:45:53;9.77;;;3.40;;
51636;SDS011;37713;53.254;6.460;2022-11-15T14:48:19;6.80;;;3.90;;
51636;SDS011;37713;53.254;6.460;2022-11-15T14:50:45;8.82;;;3.95;;
51636;SDS011;37713;53.254;6.460;2022-11-15T14:53:15;8.63;;;3.70;;
51636;SDS011;37713;53.254;6.460;2022-11-15T14:55:41;7.55;;;3.88;;
51636;SDS011;37713;53.254;6.460;2022-11-15T14:58:07;12.35;;;4.50;;
51636;SDS011;37713;53.254;6.460;2022-11-15T15:00:34;7.88;;;4.18;;
51636;SDS011;37713;53.254;6.460;2022-11-15T15:03:05;9.07;;;3.58;;
51636;SDS011;37713;53.254;6.460;2022-11-15T15:05:38;7.78;;;3.42;;
51636;SDS011;37713;53.254;6.460;2022-11-15T15:08:05;7.22;;;2.80;;
51636;SDS011;37713;53.254;6.460;2022-11-15T15:10:33;6.95;;;2.75;;
51636;SDS011;37713;53.254;6.460;2022-11-15T15:13:19;7.07;;;2.65;;
51636;SDS011;37713;53.254;6.460;2022-11-15T15:15:47;6.72;;;3.22;;
51636;SDS011;37713;53.254;6.460;2022-11-15T15:18:14;12.00;;;5.10;;
51636;SDS011;37713;53.254;6.460;2022-11-15T15:20:41;8.88;;;5.20;;
51636;SDS011;37713;53.254;6.460;2022-11-15T15:23:15;7.60;;;4.43;;
51636;SDS011;37713;53.254;6.460;2022-11-15T15:25:45;6.93;;;3.80;;
51636;SDS011;37713;53.254;6.460;2022-11-15T15:28:13;9.55;;;4.28;;
51636;SDS011;37713;53.254;6.460;2022-11-15T15:30:38;8.77;;;3.67;;
51636;SDS011;37713;53.254;6.460;2022-11-15T15:33:04;10.77;;;5.13;;
51636;SDS011;37713;53.254;6.460;2022-11-15T15:35:32;6.93;;;3.30;;
51636;SDS011;37713;53.254;6.460;2022-11-15T15:37:59;7.55;;;3.65;;
51636;SDS011;37713;53.254;6.460;2022-11-15T15:40:26;5.47;;;3.08;;
51636;SDS011;37713;53.254;6.460;2022-11-15T15:42:54;6.55;;;2.97;;
51636;SDS011;37713;53.254;6.460;2022-11-15T15:45:19;7.28;;;2.70;;
51636;SDS011;37713;53.254;6.460;2022-11-15T15:47:45;8.38;;;2.90;;
51636;SDS011;37713;53.254;6.460;2022-11-15T15:50:20;7.10;;;2.95;;
51636;SDS011;37713;53.254;6.460;2022-11-15T15:52:51;6.50;;;2.63;;
51636;SDS011;37713;53.254;6.460;2022-11-15T15:55:19;5.85;;;3.15;;
51636;SDS011;37713;53.254;6.460;2022-11-15T15:57:45;8.00;;;3.97;;
51636;SDS011;37713;53.254;6.460;2022-11-15T16:00:11;7.53;;;3.28;;
51636;SDS011;37713;53.254;6.460;2022-11-15T16:02:38;8.38;;;3.95;;
51636;SDS011;37713;53.254;6.460;2022-11-15T16:05:04;9.40;;;4.38;;
51636;SDS011;37713;53.254;6.460;2022-11-15T16:07:30;6.63;;;3.85;;
51636;SDS011;37713;53.254;6.460;2022-11-15T16:09:56;7.82;;;4.00;;
51636;SDS011;37713;53.254;6.460;2022-11-15T16:12:26;9.20;;;4.57;;
51636;SDS011;37713;53.254;6.460;2022-11-15T16:14:55;11.00;;;4.90;;
51636;SDS011;37713;53.254;6.460;2022-11-15T16:17:22;8.00;;;4.22;;
51636;SDS011;37713;53.254;6.460;2022-11-15T16:19:51;9.38;;;4.63;;
51636;SDS011;37713;53.254;6.460;2022-11-15T16:22:17;7.82;;;4.53;;
51636;SDS011;37713;53.254;6.460;2022-11-15T16:24:43;12.70;;;7.18;;
51636;SDS011;37713;53.254;6.460;2022-11-15T16:27:15;10.25;;;6.53;;
51636;SDS011;37713;53.254;6.460;2022-11-15T16:29:43;10.60;;;5.80;;
51636;SDS011;37713;53.254;6.460;2022-11-15T16:32:09;10.75;;;6.68;;
51636;SDS011;37713;53.254;6.460;2022-11-15T16:34:35;9.65;;;5.93;;
51636;SDS011;37713;53.254;6.460;2022-11-15T16:37:02;11.82;;;5.70;;
51636;SDS011;37713;53.254;6.460;2022-11-15T16:39:27;12.30;;;9.20;;
51636;SDS011;37713;53.254;6.460;2022-11-15T16:41:58;9.32;;;5.60;;
51636;SDS011;37713;53.254;6.460;2022-11-15T16:44:24;8.77;;;5.20;;
51636;SDS011;37713;53.254;6.460;2022-11-15T16:46:51;8.00;;;5.30;;
51636;SDS011;37713;53.254;6.460;2022-11-15T16:49:18;9.48;;;4.75;;
51636;SDS011;37713;53.254;6.460;2022-11-15T16:51:45;7.97;;;5.10;;
51636;SDS011;37713;53.254;6.460;2022-11-15T16:54:11;9.50;;;5.13;;
51636;SDS011;37713;53.254;6.460;2022-11-15T16:56:38;8.10;;;4.43;;
51636;SDS011;37713;53.254;6.460;2022-11-15T16:59:04;7.75;;;4.75;;
51636;SDS011;37713;53.254;6.460;2022-11-15T17:01:31;8.43;;;4.82;;
51636;SDS011;37713;53.254;6.460;2022-11-15T17:03:59;9.77;;;4.35;;
51636;SDS011;37713;53.254;6.460;2022-11-15T17:06:37;9.60;;;4.97;;
51636;SDS011;37713;53.254;6.460;2022-11-15T17:09:10;10.80;;;4.07;;
51636;SDS011;37713;53.254;6.460;2022-11-15T17:11:39;8.25;;;4.80;;